Terminal Aerodrome Forecast
Issued by NWS Sterling, VA

Current Version | Previous Version | Text Only | Print | Product List | Glossary On
Versions: 1 2 3 4 5 6 7 8 9 10 11 12 13 14 15 16
000
FTUS41 KLWX 301723
TAFCHO
TAF
KCHO 301723Z 3018/0118 15004KT P6SM BKN050
     FM302200 15005KT P6SM VCTS BKN050CB
     FM010200 00000KT P6SM BKN050 BKN130
     FM010700 00000KT 3SM BR BKN050 BKN130
     FM011200 VRB03KT P6SM BKN010 BKN130
     FM011600 22004KT P6SM BKN025 BKN130=

USA.gov is the U.S. government's official web portal to all federal, state and local government web resources and services.